Flight Track Log - Related Links

Times and Time Zones

All times are in EDT time to prevent confusion due to time zone crossing. See the JBU1116 flight status page for this flight to view local times or setup timezone preferences in your user account.

Time Position Orientation Groundspeed Altitude Reporting Facility
EDT Latitude Longitude Course Direction KTS MPH feet Rate Location/Type
Thu 07:06:04 PM 27.9833 -82.5333 360° North 139 160 900  Level Tampa TRACON
Thu 07:08:03 PM 28.1078 -82.5325 360° North 216 249 4,600 2,413 Climbing Jacksonville Center
Thu 07:09:03 PM 28.1869 -82.5394 356° North 254 292 8,100 3,150 Climbing Jacksonville Center
Thu 07:10:03 PM 28.2683 -82.5439 357° North 280 322 10,900 2,600 Climbing Jacksonville Center
Thu 07:11:03 PM 28.3622 -82.5528 355° North 311 358 13,300 2,450 Climbing Jacksonville Center
Thu 07:12:03 PM 28.4625 -82.5692 352° North 338 389 15,800 2,250 Climbing Jacksonville Center
Thu 07:13:03 PM 28.5689 -82.5828 354° North 364 419 17,800 1,950 Climbing Jacksonville Center
Thu 07:14:03 PM 28.6797 -82.5967 354° North 379 436 19,700 1,950 Climbing Jacksonville Center
Thu 07:15:03 PM 28.7883 -82.6106 354° North 390 449 21,700 1,850 Climbing Jacksonville Center
Thu 07:16:03 PM 28.9050 -82.6269 353° North 404 465 23,400 2,000 Climbing Jacksonville Center
Thu 07:17:03 PM 29.0219 -82.6408 354° North 417 480 25,700 2,100 Climbing Jacksonville Center
Thu 07:18:03 PM 29.1369 -82.6547 354° North 417 480 27,600 1,900 Climbing Jacksonville Center
Thu 07:19:03 PM 29.2497 -82.6711 353° North 412 474 29,500 1,800 Climbing Jacksonville Center
Thu 07:20:03 PM 29.3625 -82.6853 354° North 406 467 31,200 1,467 Climbing Jacksonville Center
Thu 07:22:03 PM 29.5836 -82.6944 358° North 419 482 33,900 1,200 Climbing Jacksonville Center
Thu 07:23:03 PM 29.6944 -82.6917 North 414 476 34,800 950 Climbing Jacksonville Center
Thu 07:24:03 PM 29.8111 -82.6914 360° North 414 476 35,800 550 Climbing Jacksonville Center
Thu 07:25:03 PM 29.9261 -82.6911 360° North 414 476 35,900 100 Climbing Jacksonville Center
Thu 07:26:03 PM 30.0472 -82.6886 North 419 482 36,000 200 Climbing Jacksonville Center
Thu 07:27:03 PM 30.1786 -82.6858 North 440 506 36,300 500 Climbing Jacksonville Center
Thu 07:28:03 PM 30.3061 -82.6856 360° North 451 519 37,000 300 Climbing Jacksonville Center
Thu 07:29:03 PM 30.4333 -82.6831 North 451 519 36,900  Descending Jacksonville Center
Thu 07:30:03 PM 30.5733 -82.6561 North 462 532 37,000  Climbing Jacksonville Center
Thu 07:31:03 PM 30.6964 -82.5978 22° Northeast 462 532 36,900  Descending Jacksonville Center
Thu 07:33:03 PM 30.9403 -82.4758 23° Northeast 468 539 37,000 33 Climbing Jacksonville Center
Thu 07:34:03 PM 31.0633 -82.4172 22° Northeast 479 551 37,000  Level Jacksonville Center
Thu 07:35:03 PM 31.1861 -82.3583 22° Northeast 473 544 37,000  Level Jacksonville Center
Thu 07:36:03 PM 31.3092 -82.2944 24° Northeast 473 544 37,000 -50 Level Jacksonville Center
Thu 07:37:03 PM 31.4319 -82.2425 20° North 473 544 36,900  Descending Jacksonville Center
Thu 07:38:03 PM 31.5550 -82.1806 23° Northeast 471 542 37,000 50 Climbing Jacksonville Center
Thu 07:39:03 PM 31.6756 -82.1139 25° Northeast 476 548 37,000  Level Jacksonville Center
Thu 07:40:03 PM 31.7839 -82.0617 22° Northeast 476 548 37,000  Level Jacksonville Center
Thu 07:41:03 PM 31.9169 -81.9967 23° Northeast 469 540 37,000  Level Jacksonville Center
Thu 07:42:03 PM 32.0189 -81.9247 31° Northeast 469 540 37,000  Level Jacksonville Center
Thu 07:43:03 PM 32.1433 -81.8278 33° Northeast 475 547 37,000  Level Jacksonville Center
Thu 07:44:03 PM 32.2553 -81.7453 32° Northeast 480 552 37,000  Level Jacksonville Center
Thu 07:46:03 PM 32.4811 -81.5678 34° Northeast 480 552 37,000  Level Jacksonville Center
Thu 07:48:03 PM 32.6900 -81.3992 34° Northeast 480 552 37,000  Level Jacksonville Center
Thu 07:49:03 PM 32.8017 -81.3158 32° Northeast 475 547 37,000 -50 Level Jacksonville Center
Thu 07:50:03 PM 32.9114 -81.2297 33° Northeast 475 547 36,900  Descending Jacksonville Center
Thu 07:52:03 PM 33.1344 -81.0544 33° Northeast 475 547 37,000 33 Climbing Jacksonville Center
Thu 07:53:03 PM 33.2417 -80.9678 34° Northeast 475 547 37,000  Level Jacksonville Center
Thu 07:54:03 PM 33.3508 -80.8808 34° Northeast 475 547 37,000  Level Jacksonville Center
Thu 07:55:03 PM 33.4600 -80.7939 34° Northeast 475 547 37,000 -50 Level Jacksonville Center
Thu 07:56:03 PM 33.5711 -80.7064 33° Northeast 475 547 36,900  Descending Jacksonville Center
Thu 07:58:03 PM 33.7850 -80.5286 35° Northeast 475 547 37,000 20 Climbing Jacksonville Center
Thu 08:01:03 PM 34.1158 -80.2639 34° Northeast 475 547 37,000  Level Jacksonville Center
Thu 08:03:18 PM 34.3661 -80.0525 35° Northeast 477 549 37,000  Level Washington Center
Thu 08:05:19 PM 34.5728 -79.8797 35° Northeast 483 556 37,000  Level Washington Center
Thu 08:06:20 PM 34.6822 -79.7894 34° Northeast 478 550 37,000  Level Washington Center
Thu 08:07:18 PM 34.7897 -79.7017 34° Northeast 478 550 37,000  Level Washington Center
Thu 08:08:19 PM 34.8992 -79.6108 34° Northeast 478 550 37,000  Level Washington Center
Thu 08:09:19 PM 35.0064 -79.5225 34° Northeast 478 550 37,000  Level Washington Center
Thu 08:10:21 PM 35.1158 -79.4311 34° Northeast 478 550 37,000  Level Washington Center
Thu 08:11:18 PM 35.2253 -79.3397 34° Northeast 473 544 37,000  Level Washington Center
Thu 08:12:18 PM 35.3431 -79.2383 35° Northeast 473 544 37,000  Level Washington Center
Thu 08:13:19 PM 35.4522 -79.1464 34° Northeast 473 544 37,000  Level Washington Center
Thu 08:14:20 PM 35.5486 -79.0639 35° Northeast 473 544 37,000  Level Washington Center
Thu 08:15:18 PM 35.6556 -78.9739 34° Northeast 473 544 37,000  Level Washington Center
Thu 08:16:18 PM 35.7667 -78.8814 34° Northeast 473 544 37,000  Level Washington Center
Thu 08:17:18 PM 35.8714 -78.7883 36° Northeast 473 544 37,000  Level Washington Center
Thu 08:18:20 PM 35.9867 -78.6878 35° Northeast 473 544 37,000  Level Washington Center
Thu 08:21:20 PM 36.3025 -78.4089 40° Northeast 463 533 37,000  Level Washington Center
Thu 08:22:20 PM 36.4089 -78.3147 35° Northeast 463 533 37,000  Level Washington Center
Thu 08:23:18 PM 36.5133 -78.2203 36° Northeast 463 533 37,000  Level Washington Center
Thu 08:24:19 PM 36.6175 -78.1253 36° Northeast 458 527 37,000  Level Washington Center
Thu 08:25:20 PM 36.7200 -78.0172 40° Northeast 465 535 37,000  Level Washington Center
Thu 08:26:18 PM 36.8219 -77.9167 38° Northeast 465 535 37,000  Level Washington Center
Thu 08:28:19 PM 37.0283 -77.7094 39° Northeast 471 542 37,000  Level Washington Center
Thu 08:29:20 PM 37.1281 -77.6056 40° Northeast 471 542 37,000  Level Washington Center
Thu 08:31:18 PM 37.3317 -77.3994 39° Northeast 471 542 37,000  Level Washington Center
Thu 08:32:19 PM 37.4311 -77.2969 39° Northeast 471 542 37,000  Level Washington Center
Thu 08:34:20 PM 37.6383 -77.0839 39° Northeast 471 542 37,000  Level Washington Center
Thu 08:35:20 PM 37.7378 -76.9756 41° Northeast 471 542 37,000  Level Washington Center
Thu 08:36:21 PM 37.8411 -76.8697 39° Northeast 471 542 37,000  Level Washington Center
Thu 08:37:18 PM 37.9422 -76.7636 40° Northeast 476 548 37,000  Level Washington Center
Thu 08:38:19 PM 38.0433 -76.6569 40° Northeast 476 548 37,000  Level Washington Center
Thu 08:39:20 PM 38.1422 -76.5500 40° Northeast 476 548 37,000  Level Washington Center
Thu 08:40:18 PM 38.2453 -76.4456 39° Northeast 476 548 37,000 -454 Level Washington Center
Thu 08:41:19 PM 38.3397 -76.3514 38° Northeast 476 548 36,100 -1,869 Descending Washington Center
Thu 08:42:20 PM 38.4444 -76.2544 36° Northeast 470 541 33,200 -3,025 Descending Washington Center
Thu 08:43:20 PM 38.5639 -76.1439 36° Northeast 470 541 30,000 -2,847 Descending Washington Center
Thu 08:44:18 PM 38.6706 -76.0489 35° Northeast 470 541 27,600 -1,006 Descending Washington Center
Thu 08:46:19 PM 38.8714 -75.8608 36° Northeast 454 522 27,000 -473 Descending Washington Center
Thu 08:48:19 PM 39.0717 -75.6719 36° Northeast 454 522 25,700 -762 Descending Washington Center
Thu 08:49:20 PM 39.1656 -75.5808 37° Northeast 442 509 24,700 -1,033 Descending Washington Center
Thu 08:50:21 PM 39.2614 -75.4925 36° Northeast 429 494 23,600 -1,322 Descending Washington Center
Thu 08:51:18 PM 39.3550 -75.4092 35° Northeast 419 482 22,100 -1,475 Descending Washington Center
Thu 08:52:19 PM 39.4486 -75.3256 35° Northeast 414 476 20,700 -1,426 Descending Washington Center
Thu 08:53:20 PM 39.5422 -75.2417 35° Northeast 409 471 19,200 -1,433 Descending Washington Center
Thu 08:55:19 PM 39.7167 -75.0789 36° Northeast 390 449 16,400 -1,367 Descending Washington Center
Thu 08:56:20 PM 39.7975 -75.0108 33° Northeast 379 436 15,100 -1,339 Descending Washington Center
Thu 08:57:20 PM 39.8931 -74.9289 33° Northeast 371 427 13,700 -1,301 Descending Washington Center
Thu 08:59:06 PM 40.0167 -74.7667 45° Northeast 363 418 11,500 -1,265 Descending New York TRACON
Thu 09:00:06 PM 40.0833 -74.6667 49° Northeast 363 418 10,200 -700 Descending New York TRACON
Thu 09:01:06 PM 40.1500 -74.5667 49° Northeast 363 418 10,100 -50 Descending New York TRACON
Thu 09:02:06 PM 40.2167 -74.4667 49° Northeast 363 418 10,100  Level New York TRACON
Thu 09:03:06 PM 40.3000 -74.3833 37° Northeast 361 415 10,100  Level New York TRACON
Thu 09:04:06 PM 40.3667 -74.2833 49° Northeast 360 414 10,100 -200 Level New York TRACON
Thu 09:05:06 PM 40.4333 -74.2000 44° Northeast 309 356 9,700 -650 Descending New York TRACON
Thu 09:06:06 PM 40.5000 -74.1333 37° Northeast 303 349 8,800 -1,000 Descending New York TRACON
Thu 09:07:06 PM 40.5667 -74.0667 37° Northeast 301 346 7,700 -1,200 Descending New York TRACON
Thu 09:08:06 PM 40.6500 -74.0333 17° North 293 337 6,400 -1,552 Descending New York TRACON
Thu 09:10:00 PM 40.8000 -73.9833 14° North 303 349 3,200 -1,138 Descending New York TRACON
Thu 09:11:00 PM 40.8500 -73.9333 37° Northeast 262 302 3,100 -381 Descending New York TRACON
Thu 09:12:06 PM 40.9000 -73.8667 45° Northeast 225 259 2,400 -476 Descending New York TRACON
Thu 09:13:06 PM 40.9167 -73.8000 72° East 211 243 2,100 -200 Descending New York TRACON
Thu 09:14:06 PM 40.8833 -73.7833 159° South 160 184 2,000 -250 Descending New York TRACON
Thu 09:15:06 PM 40.8500 -73.8167 217° Southwest 137 158 1,600 -400 Descending New York TRACON
Thu 09:18:00 PM 40.7772 -73.8726 180° South  Level Estimated

Login

Don't have an account? Register now (free) for customized features, flight alerts, and more!